Time;durP1;ratioP1;P1;durP2;ratioP2;P2;SDS_P1;SDS_P2;PMS_P1;PMS_P2;Temp;Humidity;BMP_temperature;BMP_pressure;BME280_temperature;BME280_humidity;BME280_pressure;Samples;Min_cycle;Max_cycle;Signal;HPM_P1;HPM_P2
2024/01/18 00:00:29;;;;;;;;;;;;;;;12.16;48.90;97914.91;4467265;32;34120;-82
2024/01/18 00:02:56;;;;;;;;;;;;;;;11.92;49.63;97911.25;4462010;32;34840;-81
2024/01/18 00:05:24;;;;;;;;;;;;;;;12.16;49.82;97904.53;4478243;32;35161;-82
2024/01/18 00:07:51;;;;;;;;;;;;;;;12.48;48.81;97899.59;4475197;32;35102;-81
2024/01/18 00:10:26;;;;;;;;;;;;;;;12.31;48.96;97896.87;4469924;32;33386;-80
2024/01/18 00:12:53;;;;;;;;;;;;;;;12.58;48.31;97892.72;4473593;32;33793;-81
2024/01/18 00:15:21;;;;;;;;;;;;;;;12.38;48.80;97893.47;4458823;32;34954;-81
2024/01/18 00:17:48;;;;;;;;;;;;;;;12.58;48.52;97882.34;4472640;32;34255;-81
2024/01/18 00:20:16;;;;;;;;;;;;;;;12.59;48.59;97884.94;4475209;32;34035;-81
2024/01/18 00:22:44;;;;;;;;;;;;;;;12.86;47.93;97877.28;4446854;32;34074;-81
2024/01/18 00:25:11;;;;;;;;;;;;;;;12.65;48.44;97878.91;4467150;32;35162;-81
2024/01/18 00:27:38;;;;;;;;;;;;;;;12.77;48.13;97878.97;4475291;32;33605;-82
2024/01/18 00:30:06;;;;;;;;;;;;;;;12.93;47.79;97879.03;4464171;32;31924;-81
2024/01/18 00:32:33;;;;;;;;;;;;;;;12.67;48.82;97874.59;4475971;32;33690;-81
2024/01/18 00:35:01;;;;;;;;;;;;;;;12.51;48.83;97875.34;4470401;32;34952;-82
2024/01/18 00:37:29;;;;;;;;;;;;;;;12.61;48.84;97877.13;4472851;32;34550;-81
2024/01/18 00:39:56;;;;;;;;;;;;;;;12.89;48.11;97875.56;4473164;32;33383;-81
2024/01/18 00:42:24;;;;;;;;;;;;;;;12.84;48.26;97879.84;4475062;32;34451;-81
2024/01/18 00:44:52;;;;;;;;;;;;;;;13.07;47.75;97876.50;4476571;32;34278;-81
2024/01/18 00:47:20;;;;;;;;;;;;;;;13.06;47.87;97874.78;4468409;32;34186;-82
2024/01/18 00:49:48;;;;;;;;;;;;;;;12.79;48.44;97882.44;4479762;32;32508;-81
2024/01/18 00:52:15;;;;;;;;;;;;;;;12.86;48.14;97874.66;4468933;32;33705;-81
2024/01/18 00:54:43;;;;;;;;;;;;;;;12.97;48.19;97867.78;4479670;32;34943;-82
2024/01/18 00:57:10;;;;;;;;;;;;;;;13.33;47.50;97866.22;4471883;32;35082;-81
2024/01/18 00:59:38;;;;;;;;;;;;;;;13.32;47.39;97867.09;4474659;32;33485;-81
2024/01/18 01:02:05;;;;;;;;;;;;;;;13.35;47.44;97861.91;4468713;32;33900;-81
2024/01/18 01:04:33;;;;;;;;;;;;;;;12.93;48.75;97863.44;4473102;32;34238;-81
2024/01/18 01:07:01;;;;;;;;;;;;;;;13.08;48.46;97853.13;4459310;32;33148;-81
2024/01/18 01:09:29;;;;;;;;;;;;;;;13.26;48.15;97848.84;4473452;32;32865;-82
2024/01/18 01:11:56;;;;;;;;;;;;;;;13.46;47.65;97834.19;4475512;32;34922;-82
2024/01/18 01:14:24;;;;;;;;;;;;;;;13.43;47.95;97836.78;4476292;32;34873;-81
2024/01/18 01:16:51;;;;;;;;;;;;;;;13.32;48.00;97826.34;4470845;32;34348;-81
2024/01/18 01:19:18;;;;;;;;;;;;;;;13.20;48.58;97822.81;4473046;32;32850;-82
2024/01/18 01:21:46;;;;;;;;;;;;;;;13.55;48.04;97833.31;4464744;32;33860;-82
2024/01/18 01:24:13;;;;;;;;;;;;;;;13.39;48.25;97832.44;4472431;32;33578;-82
2024/01/18 01:26:41;;;;;;;;;;;;;;;13.42;48.28;97835.03;4465224;32;34027;-81
2024/01/18 01:29:10;;;;;;;;;;;;;;;13.70;47.54;97822.06;4468786;32;32852;-82
2024/01/18 01:31:37;;;;;;;;;;;;;;;13.51;47.80;97808.19;4471505;32;34057;-82
2024/01/18 01:34:05;;;;;;;;;;;;;;;13.48;47.63;97809.06;4481304;32;33825;-81
2024/01/18 01:36:32;;;;;;;;;;;;;;;13.27;48.11;97812.44;4471206;32;34380;-82
2024/01/18 01:38:59;;;;;;;;;;;;;;;13.50;47.82;97809.91;4476735;32;34016;-81
2024/01/18 01:41:27;;;;;;;;;;;;;;;13.67;47.60;97796.03;4458134;32;34690;-81
2024/01/18 01:43:55;;;;;;;;;;;;;;;13.59;47.88;97801.22;4470676;32;34258;-82
2024/01/18 01:46:22;;;;;;;;;;;;;;;13.79;47.44;97792.56;4472833;32;33960;-81
2024/01/18 01:48:49;;;;;;;;;;;;;;;13.72;47.61;97781.31;4469065;32;33907;-81
2024/01/18 01:51:17;;;;;;;;;;;;;;;13.52;48.05;97776.97;4472833;32;34949;-81
2024/01/18 01:53:44;;;;;;;;;;;;;;;13.78;47.45;97773.50;4463822;32;33941;-81
2024/01/18 01:56:11;;;;;;;;;;;;;;;13.66;47.86;97763.09;4455991;32;34126;-81
2024/01/18 01:58:39;;;;;;;;;;;;;;;13.43;48.57;97760.50;4460798;32;33863;-80
2024/01/18 02:01:06;;;;;;;;;;;;;;;13.66;48.19;97758.75;4463923;32;34849;-81
2024/01/18 02:03:33;;;;;;;;;;;;;;;13.86;47.66;97755.25;4472209;32;33728;-81
2024/01/18 02:06:01;;;;;;;;;;;;;;;13.59;48.15;97753.56;4474808;32;34828;-81
2024/01/18 02:08:29;;;;;;;;;;;;;;;13.85;47.83;97758.72;4456731;32;33272;-81
2024/01/18 02:10:56;;;;;;;;;;;;;;;13.80;47.83;97756.12;4469518;32;34530;-81
2024/01/18 02:13:24;;;;;;;;;;;;;;;13.83;47.78;97755.25;4462009;32;34342;-81
2024/01/18 02:15:51;;;;;;;;;;;;;;;14.15;47.29;97737.00;4468777;32;33217;-80
2024/01/18 02:18:18;;;;;;;;;;;;;;;13.97;47.65;97732.69;4476270;32;32904;-82
2024/01/18 02:20:46;;;;;;;;;;;;;;;13.94;47.75;97733.56;4473849;32;34848;-81
2024/01/18 02:23:13;;;;;;;;;;;;;;;14.19;47.24;97733.50;4455935;32;32705;-82
2024/01/18 02:25:41;;;;;;;;;;;;;;;13.87;48.26;97737.06;4463250;32;33712;-82
2024/01/18 02:28:08;;;;;;;;;;;;;;;13.43;49.51;97726.69;4474230;32;33726;-82
2024/01/18 02:30:35;;;;;;;;;;;;;;;13.46;49.52;97719.75;4474999;32;34164;-82
2024/01/18 02:33:03;;;;;;;;;;;;;;;13.68;49.03;97720.59;4469751;32;33814;-82
2024/01/18 02:35:31;;;;;;;;;;;;;;;13.40;49.64;97719.72;4469568;32;34196;-81
2024/01/18 02:37:59;;;;;;;;;;;;;;;13.43;49.64;97713.69;4476387;32;34020;-81
2024/01/18 02:40:26;;;;;;;;;;;;;;;13.57;49.44;97712.78;4471481;32;34142;-80
2024/01/18 02:42:53;;;;;;;;;;;;;;;13.61;49.47;97712.78;4456937;32;33785;-81
2024/01/18 02:45:21;;;;;;;;;;;;;;;13.79;49.29;97707.59;4449822;32;33202;-81
2024/01/18 02:47:49;;;;;;;;;;;;;;;13.95;48.66;97704.06;4460276;32;33167;-81
2024/01/18 02:50:16;;;;;;;;;;;;;;;14.04;48.19;97702.31;4472951;32;34612;-80
2024/01/18 02:52:43;;;;;;;;;;;;;;;13.78;49.03;97713.66;4474103;32;34201;-81
2024/01/18 02:55:11;;;;;;;;;;;;;;;13.99;48.56;97704.06;4451329;32;32941;-81
2024/01/18 02:57:38;;;;;;;;;;;;;;;13.74;49.44;97714.53;4472580;32;32626;-81
2024/01/18 03:00:06;;;;;;;;;;;;;;;14.06;49.01;97705.75;4480913;32;34173;-80
2024/01/18 03:02:34;;;;;;;;;;;;;;;14.31;48.40;97704.84;4479050;32;34001;-81
2024/01/18 03:05:01;;;;;;;;;;;;;;;14.05;49.42;97704.06;4467969;32;33690;-82
2024/01/18 03:07:28;;;;;;;;;;;;;;;14.10;49.29;97713.59;4475505;32;33460;-82
2024/01/18 03:09:56;;;;;;;;;;;;;;;14.28;48.94;97709.19;4464551;32;34180;-80
2024/01/18 03:12:25;;;;;;;;;;;;;;;14.23;48.86;97719.59;4470799;32;34036;-80
2024/01/18 03:14:52;;;;;;;;;;;;;;;14.22;49.00;97717.88;4477777;32;34114;-82
2024/01/18 03:17:19;;;;;;;;;;;;;;;13.85;49.63;97712.78;4470500;32;34074;-81
2024/01/18 03:19:46;;;;;;;;;;;;;;;14.22;48.94;97712.66;4472892;32;34947;-82
2024/01/18 03:22:14;;;;;;;;;;;;;;;14.32;48.81;97698.72;4469002;32;33877;-82
2024/01/18 03:24:41;;;;;;;;;;;;;;;14.29;48.78;97709.19;4473155;32;35026;-82
2024/01/18 03:27:09;;;;;;;;;;;;;;;14.40;48.91;97706.53;4471929;32;33468;-80
2024/01/18 03:29:38;;;;;;;;;;;;;;;14.34;49.23;97702.19;4469948;32;33881;-80
2024/01/18 03:32:05;;;;;;;;;;;;;;;14.11;49.68;97693.63;4457709;32;34980;-81
2024/01/18 03:34:32;;;;;;;;;;;;;;;14.18;49.68;97703.12;4478621;32;33935;-81
2024/01/18 03:37:00;;;;;;;;;;;;;;;14.16;49.88;97691.87;4469424;32;33362;-82
2024/01/18 03:39:27;;;;;;;;;;;;;;;14.42;49.47;97688.28;4472960;32;34913;-80
2024/01/18 03:41:55;;;;;;;;;;;;;;;14.47;49.26;97695.22;4472216;32;34025;-81
2024/01/18 03:44:22;;;;;;;;;;;;;;;14.58;48.96;97689.97;4459079;32;34224;-80
2024/01/18 03:46:49;;;;;;;;;;;;;;;14.34;49.52;97691.78;4459621;32;32788;-81
2024/01/18 03:49:17;;;;;;;;;;;;;;;14.83;48.42;97700.25;4478971;32;34859;-81
2024/01/18 03:51:44;;;;;;;;;;;;;;;14.38;49.21;97694.38;4474394;32;35023;-82
2024/01/18 03:54:11;;;;;;;;;;;;;;;14.52;49.05;97700.38;4458329;32;33469;-82
2024/01/18 03:56:39;;;;;;;;;;;;;;;14.41;49.35;97703.06;4457641;32;33256;-80
2024/01/18 03:59:06;;;;;;;;;;;;;;;14.73;48.69;97697.69;4474737;32;33871;-81
2024/01/18 04:01:34;;;;;;;;;;;;;;;14.70;48.74;97694.28;4460947;32;33541;-81
2024/01/18 04:04:02;;;;;;;;;;;;;;;14.52;49.05;97687.34;4476626;32;34110;-82
2024/01/18 04:06:29;;;;;;;;;;;;;;;14.65;48.90;97686.47;4469626;32;34064;-80
2024/01/18 04:08:57;;;;;;;;;;;;;;;14.71;48.76;97685.56;4475935;32;34692;-81
2024/01/18 04:11:24;;;;;;;;;;;;;;;14.65;48.94;97681.25;4469388;32;33899;-81
2024/01/18 04:13:51;;;;;;;;;;;;;;;14.71;48.83;97676.00;4477592;32;34973;-81
2024/01/18 04:16:18;;;;;;;;;;;;;;;14.65;49.01;97669.97;4480421;32;33477;-81
2024/01/18 04:18:46;;;;;;;;;;;;;;;14.73;48.85;97670.78;4480088;32;34049;-82
2024/01/18 04:21:14;;;;;;;;;;;;;;;14.70;48.94;97674.28;4477748;32;35075;-81
2024/01/18 04:23:42;;;;;;;;;;;;;;;14.70;48.96;97669.06;4468985;32;34258;-81
2024/01/18 04:26:09;;;;;;;;;;;;;;;15.04;48.29;97658.41;4476157;32;33232;-81
2024/01/18 04:28:37;;;;;;;;;;;;;;;15.20;47.89;97650.47;4469063;32;34208;-81
2024/01/18 04:31:04;;;;;;;;;;;;;;;15.04;48.15;97647.97;4471034;32;34094;-80
2024/01/18 04:33:31;;;;;;;;;;;;;;;15.06;47.99;97643.59;4468652;32;32782;-81
2024/01/18 04:35:59;;;;;;;;;;;;;;;14.99;48.13;97644.56;4472324;32;34065;-81
2024/01/18 04:38:26;;;;;;;;;;;;;;;15.04;48.08;97647.13;4480129;32;34046;-81
2024/01/18 04:40:54;;;;;;;;;;;;;;;15.18;47.79;97645.25;4473366;32;33978;-81
2024/01/18 04:43:23;;;;;;;;;;;;;;;15.04;47.89;97637.53;4476344;32;33881;-81
2024/01/18 04:45:50;;;;;;;;;;;;;;;15.40;46.96;97639.88;4474468;32;33082;-81
2024/01/18 04:48:18;;;;;;;;;;;;;;;15.23;47.37;97640.00;4446641;32;34132;-80
2024/01/18 04:50:45;;;;;;;;;;;;;;;15.25;47.35;97640.88;4474287;32;34243;-81
2024/01/18 04:53:14;;;;;;;;;;;;;;;15.16;47.74;97640.94;4466076;32;33638;-81
2024/01/18 04:55:43;;;;;;;;;;;;;;;14.95;48.02;97632.41;4470986;32;34132;-81
2024/01/18 04:58:10;;;;;;;;;;;;;;;14.99;48.02;97634.12;4461860;32;33710;-80
2024/01/18 05:00:37;;;;;;;;;;;;;;;14.89;48.23;97632.44;4473377;32;34880;-81
2024/01/18 05:03:05;;;;;;;;;;;;;;;15.02;47.91;97641.03;4470548;32;34299;-81
2024/01/18 05:05:35;;;;;;;;;;;;;;;15.16;47.60;97640.94;4474226;32;33457;-80
2024/01/18 05:08:03;;;;;;;;;;;;;;;15.23;47.17;97643.47;4476203;32;33909;-80
2024/01/18 05:10:31;;;;;;;;;;;;;;;14.93;47.82;97635.03;4469238;32;34926;-81
2024/01/18 05:12:58;;;;;;;;;;;;;;;14.81;48.01;97640.31;4468860;32;33554;-82
2024/01/18 05:15:25;;;;;;;;;;;;;;;14.85;47.85;97643.78;4474265;32;33064;-81
2024/01/18 05:17:54;;;;;;;;;;;;;;;14.96;47.58;97634.12;4470398;32;34215;-80
2024/01/18 05:20:21;;;;;;;;;;;;;;;14.96;47.59;97634.12;4477483;32;35865;-81
2024/01/18 05:22:48;;;;;;;;;;;;;;;14.92;47.57;97632.44;4473018;32;34390;-81
2024/01/18 05:25:16;;;;;;;;;;;;;;;14.86;47.65;97643.75;4473284;32;33379;-81
2024/01/18 05:27:43;;;;;;;;;;;;;;;14.85;47.61;97641.16;4471553;32;33799;-80
2024/01/18 05:30:11;;;;;;;;;;;;;;;15.07;47.15;97637.53;4476481;32;34747;-81
2024/01/18 05:32:38;;;;;;;;;;;;;;;14.90;47.55;97636.78;4466878;32;33755;-81
2024/01/18 05:35:06;;;;;;;;;;;;;;;14.86;47.63;97628.13;4469750;32;33464;-82
2024/01/18 05:37:34;;;;;;;;;;;;;;;14.93;47.49;97623.72;4476193;32;34141;-82
2024/01/18 05:40:02;;;;;;;;;;;;;;;14.92;47.48;97627.22;4473184;32;34230;-82
2024/01/18 05:42:29;;;;;;;;;;;;;;;14.92;47.56;97633.28;4468666;32;34477;-81
2024/01/18 05:44:57;;;;;;;;;;;;;;;14.98;47.37;97637.59;4454254;32;33211;-81
2024/01/18 05:47:26;;;;;;;;;;;;;;;15.00;47.24;97630.63;4474482;32;34901;-82
2024/01/18 05:49:53;;;;;;;;;;;;;;;14.97;47.26;97630.66;4453276;32;33855;-80
2024/01/18 05:52:21;;;;;;;;;;;;;;;14.84;47.36;97636.84;4459514;32;34402;-82
2024/01/18 05:54:48;;;;;;;;;;;;;;;14.90;47.33;97631.59;4459141;32;33050;-81
2024/01/18 05:57:15;;;;;;;;;;;;;;;14.75;47.52;97636.00;4468213;32;33716;-81
2024/01/18 05:59:43;;;;;;;;;;;;;;;14.82;47.45;97636.84;4469106;32;34243;-80
2024/01/18 06:02:10;;;;;;;;;;;;;;;14.83;47.40;97632.50;4473991;32;33763;-82
2024/01/18 06:04:38;;;;;;;;;;;;;;;14.75;47.42;97633.41;4477459;32;32936;-81
2024/01/18 06:07:05;;;;;;;;;;;;;;;14.73;47.47;97647.31;4476662;32;34278;-80
2024/01/18 06:09:33;;;;;;;;;;;;;;;14.74;47.45;97644.72;4450897;32;35370;-82
2024/01/18 06:12:00;;;;;;;;;;;;;;;14.77;47.45;97637.75;4475834;32;34490;-82
2024/01/18 06:14:28;;;;;;;;;;;;;;;14.80;47.48;97640.34;4473155;32;33754;-80
2024/01/18 06:16:56;;;;;;;;;;;;;;;14.63;47.74;97636.09;4470590;32;34015;-80
2024/01/18 06:19:24;;;;;;;;;;;;;;;14.95;47.10;97637.63;4473440;32;35109;-80
2024/01/18 06:21:51;;;;;;;;;;;;;;;14.73;47.37;97642.97;4474085;32;34670;-81
2024/01/18 06:24:20;;;;;;;;;;;;;;;14.83;47.17;97635.09;4470453;32;33214;-81
2024/01/18 06:26:47;;;;;;;;;;;;;;;14.72;47.27;97646.47;4470201;32;34153;-81
2024/01/18 06:29:16;;;;;;;;;;;;;;;14.78;47.18;97642.09;4478225;32;32735;-81
2024/01/18 06:31:43;;;;;;;;;;;;;;;14.81;47.06;97644.66;4479800;32;33803;-81
2024/01/18 06:34:11;;;;;;;;;;;;;;;14.70;47.17;97643.00;4474316;32;33406;-80
2024/01/18 06:36:39;;;;;;;;;;;;;;;14.71;47.29;97657.75;4474971;32;34056;-81
2024/01/18 06:39:07;;;;;;;;;;;;;;;15.00;46.73;97646.28;4478383;32;34236;-80
2024/01/18 06:41:35;;;;;;;;;;;;;;;14.94;46.66;97659.34;4477197;32;34444;-80
2024/01/18 06:44:02;;;;;;;;;;;;;;;14.70;47.22;97663.84;4470126;32;33545;-80
2024/01/18 06:46:29;;;;;;;;;;;;;;;14.78;47.18;97665.56;4479929;32;34123;-80
2024/01/18 06:48:57;;;;;;;;;;;;;;;14.62;47.50;97655.22;4473283;32;34131;-81
2024/01/18 06:51:24;;;;;;;;;;;;;;;14.68;47.39;97657.78;4464299;32;34767;-80
2024/01/18 06:53:52;;;;;;;;;;;;;;;14.71;47.41;97655.16;4477842;32;33850;-80
2024/01/18 06:56:19;;;;;;;;;;;;;;;14.78;47.35;97660.34;4475443;32;34636;-80
2024/01/18 06:58:46;;;;;;;;;;;;;;;14.77;47.37;97658.59;4476389;32;34170;-81
2024/01/18 07:01:14;;;;;;;;;;;;;;;14.80;47.43;97658.59;4474261;32;34823;-82
2024/01/18 07:03:42;;;;;;;;;;;;;;;14.84;47.37;97650.72;4472353;32;34175;-80
2024/01/18 07:06:10;;;;;;;;;;;;;;;14.90;47.30;97650.69;4472130;32;34236;-80
2024/01/18 07:08:39;;;;;;;;;;;;;;;15.20;46.62;97647.84;4482384;32;35117;-80
2024/01/18 07:11:06;;;;;;;;;;;;;;;14.83;47.33;97648.97;4480226;32;34297;-81
2024/01/18 07:13:34;;;;;;;;;;;;;;;14.87;47.28;97634.19;4476516;32;33440;-82
2024/01/18 07:16:01;;;;;;;;;;;;;;;15.18;46.57;97631.34;4481470;32;33792;-81
2024/01/18 07:18:29;;;;;;;;;;;;;;;14.98;46.90;97642.81;4460058;32;34165;-82
2024/01/18 07:20:57;;;;;;;;;;;;;;;14.84;47.21;97642.06;4475929;32;33982;-83
2024/01/18 07:23:24;;;;;;;;;;;;;;;14.85;47.18;97646.37;4476549;32;33468;-82
2024/01/18 07:25:51;;;;;;;;;;;;;;;14.79;47.29;97641.22;4476094;32;33824;-79
2024/01/18 07:28:22;;;;;;;;;;;;;;;14.75;47.47;97650.78;4456347;32;34200;-81
2024/01/18 07:30:49;;;;;;;;;;;;;;;15.11;46.89;97643.59;4474973;32;33693;-79
2024/01/18 07:33:17;;;;;;;;;;;;;;;15.00;46.96;97646.28;4475068;32;33369;-79
2024/01/18 07:35:44;;;;;;;;;;;;;;;14.98;46.97;97657.59;4473030;32;34138;-79
2024/01/18 07:38:13;;;;;;;;;;;;;;;14.92;47.19;97663.72;4481359;32;33892;-80
2024/01/18 07:40:41;;;;;;;;;;;;;;;14.81;47.46;97666.38;4476953;32;34923;-80
2024/01/18 07:43:08;;;;;;;;;;;;;;;14.85;47.43;97665.47;4462977;32;33607;-80
2024/01/18 07:45:36;;;;;;;;;;;;;;;14.88;47.46;97669.81;4477640;32;34051;-80
2024/01/18 07:48:03;;;;;;;;;;;;;;;14.97;47.22;97671.50;4475261;32;33547;-81
2024/01/18 07:50:30;;;;;;;;;;;;;;;14.99;47.22;97681.06;4479747;32;34950;-80
2024/01/18 07:53:03;;;;;;;;;;;;;;;14.97;47.09;97667.16;4482409;32;33032;-79
2024/01/18 07:55:31;;;;;;;;;;;;;;;15.02;46.80;97670.59;4455949;32;776775;-80
2024/01/18 07:57:58;;;;;;;;;;;;;;;15.06;46.40;97682.72;4478918;32;33869;-80
2024/01/18 08:00:26;;;;;;;;;;;;;;;14.87;46.93;97688.94;4474803;32;34858;-78
2024/01/18 08:02:53;;;;;;;;;;;;;;;14.82;47.08;97685.50;4474884;32;32765;-79
2024/01/18 08:05:21;;;;;;;;;;;;;;;14.77;47.27;97685.53;4477113;32;34965;-80
2024/01/18 08:07:49;;;;;;;;;;;;;;;14.69;47.32;97682.97;4472541;32;33934;-80
2024/01/18 08:10:16;;;;;;;;;;;;;;;14.81;47.41;97689.84;4471693;32;34196;-79
2024/01/18 08:12:44;;;;;;;;;;;;;;;14.61;47.92;97687.34;4480841;32;33160;-80
2024/01/18 08:15:12;;;;;;;;;;;;;;;14.54;48.24;97683.91;4476264;32;33814;-79
2024/01/18 08:17:42;;;;;;;;;;;;;;;14.75;47.85;97692.47;4472465;32;33957;-79
2024/01/18 08:20:12;;;;;;;;;;;;;;;14.65;48.20;97683.00;4480889;32;34332;-81
2024/01/18 08:22:42;;;;;;;;;;;;;;;14.71;48.31;97678.59;4473872;32;33176;-81
2024/01/18 08:25:12;;;;;;;;;;;;;;;14.91;48.05;97688.03;4469142;32;34063;-82
2024/01/18 08:27:40;;;;;;;;;;;;;;;14.79;48.36;97682.91;4448799;32;33556;-80
2024/01/18 08:30:07;;;;;;;;;;;;;;;14.87;48.55;97683.72;4461279;32;34861;-81
2024/01/18 08:32:35;;;;;;;;;;;;;;;14.97;48.06;97689.75;4479971;32;33895;-80
2024/01/18 08:35:03;;;;;;;;;;;;;;;15.07;47.78;97679.25;4475560;32;34103;-80
2024/01/18 08:37:31;;;;;;;;;;;;;;;14.91;48.21;97682.81;4479774;32;33496;-81
2024/01/18 08:39:58;;;;;;;;;;;;;;;14.96;48.14;97686.28;4478852;32;33939;-81
2024/01/18 08:42:26;;;;;;;;;;;;;;;14.98;48.26;97679.31;4476315;32;33252;-82
2024/01/18 08:44:53;;;;;;;;;;;;;;;15.13;48.02;97683.56;4450253;32;33339;-82
2024/01/18 08:47:22;;;;;;;;;;;;;;;15.75;46.66;97683.06;4473830;32;34932;-82
2024/01/18 08:49:49;;;;;;;;;;;;;;;15.47;47.33;97689.38;4449939;32;34603;-81
2024/01/18 08:52:17;;;;;;;;;;;;;;;14.96;48.49;97701.91;4461877;32;33375;-82
2024/01/18 08:54:45;;;;;;;;;;;;;;;14.94;48.71;97701.06;4479921;32;34085;-80
2024/01/18 08:57:12;;;;;;;;;;;;;;;14.82;49.49;97698.53;4472735;32;34157;-81
2024/01/18 08:59:41;;;;;;;;;;;;;;;15.10;48.67;97696.59;4468332;32;34888;-80
2024/01/18 09:02:08;;;;;;;;;;;;;;;15.23;48.46;97710.44;4474573;32;33155;-80
2024/01/18 09:04:47;;;;;;;;;;;;;;;15.48;47.71;97711.97;4480121;32;34694;-81
2024/01/18 09:07:16;;;;;;;;;;;;;;;15.11;48.66;97722.69;4468384;32;34510;-81
2024/01/18 09:09:45;;;;;;;;;;;;;;;15.57;47.83;97715.34;4478419;32;35103;-81
2024/01/18 09:12:13;;;;;;;;;;;;;;;15.18;48.56;97707.84;4471008;32;32940;-81
2024/01/18 09:14:42;;;;;;;;;;;;;;;15.29;48.39;97716.44;4475365;32;34660;-81
2024/01/18 09:17:09;;;;;;;;;;;;;;;15.38;48.57;97704.25;4458543;32;32390;-80
2024/01/18 09:19:37;;;;;;;;;;;;;;;15.41;48.52;97706.81;4475685;32;34171;-80
2024/01/18 09:22:05;;;;;;;;;;;;;;;15.19;49.10;97713.94;4479212;32;33524;-80
2024/01/18 09:24:32;;;;;;;;;;;;;;;15.49;48.42;97698.06;4473142;32;35084;-81
2024/01/18 09:27:00;;;;;;;;;;;;;;;14.96;50.04;97709.75;4475377;32;34121;-80
2024/01/18 09:29:27;;;;;;;;;;;;;;;15.22;49.59;97708.69;4462134;32;32409;-80
2024/01/18 09:31:56;;;;;;;;;;;;;;;15.09;49.89;97719.22;4470389;32;33025;-81
2024/01/18 09:34:25;;;;;;;;;;;;;;;15.24;49.80;97709.53;4483592;32;34094;-81
2024/01/18 09:36:53;;;;;;;;;;;;;;;15.31;49.75;97713.84;4459703;32;34964;-80
2024/01/18 09:39:20;;;;;;;;;;;;;;;15.48;49.45;97711.09;4461748;32;33865;-80
2024/01/18 09:41:49;;;;;;;;;;;;;;;15.79;49.04;97711.72;4478665;32;33159;-80
2024/01/18 09:44:17;;;;;;;;;;;;;;;16.06;48.44;97701.88;4477338;32;34932;-81
2024/01/18 09:46:45;;;;;;;;;;;;;;;15.96;48.44;97695.03;4467600;32;33934;-80
2024/01/18 09:49:13;;;;;;;;;;;;;;;15.58;49.42;97712.75;4470433;32;33584;-80
2024/01/18 09:51:40;;;;;;;;;;;;;;;16.04;48.53;97698.41;4448530;32;31573;-81
2024/01/18 09:54:07;;;;;;;;;;;;;;;16.20;47.94;97694.75;4468752;32;34255;-82
2024/01/18 09:56:36;;;;;;;;;;;;;;;15.69;49.03;97700.47;4475635;32;34984;-81
2024/01/18 09:59:04;;;;;;;;;;;;;;;15.79;48.85;97706.50;4452468;32;33917;-81
2024/01/18 10:01:31;;;;;;;;;;;;;;;15.85;48.70;97701.22;4474064;32;33085;-80
2024/01/18 10:03:59;;;;;;;;;;;;;;;15.88;48.70;97700.34;4464627;32;34100;-81
2024/01/18 10:06:26;;;;;;;;;;;;;;;15.73;49.41;97696.12;4466615;32;34848;-81
2024/01/18 10:08:55;;;;;;;;;;;;;;;15.71;49.18;97687.41;4476959;32;34841;-81
2024/01/18 10:11:23;;;;;;;;;;;;;;;15.64;49.71;97685.72;4479291;32;34001;-81
2024/01/18 10:13:51;;;;;;;;;;;;;;;16.04;48.81;97693.19;4473974;32;34105;-80
2024/01/18 10:16:35;;;;;;;;;;;;;;;15.77;49.39;97682.16;4457717;32;32699;-80
2024/01/18 10:19:04;;;;;;;;;;;;;;;15.80;49.42;97676.91;4470694;32;33434;-82
2024/01/18 10:21:33;;;;;;;;;;;;;;;15.67;49.75;97675.28;4477317;32;33425;-80
2024/01/18 10:24:01;;;;;;;;;;;;;;;15.48;50.28;97670.22;4458203;32;34175;-81
2024/01/18 10:26:29;;;;;;;;;;;;;;;15.78;49.74;97673.47;4468047;32;34858;-81
2024/01/18 10:28:57;;;;;;;;;;;;;;;15.78;49.70;97683.91;4463467;32;34263;-81
2024/01/18 10:31:28;;;;;;;;;;;;;;;15.78;49.74;97681.28;4458210;32;33164;-81
2024/01/18 10:33:55;;;;;;;;;;;;;;;15.95;49.67;97680.22;4470530;32;34945;-81
2024/01/18 10:36:22;;;;;;;;;;;;;;;15.93;49.39;97682.84;4473457;32;33738;-81
2024/01/18 10:38:50;;;;;;;;;;;;;;;16.09;48.85;97673.12;4480308;32;35177;-81
2024/01/18 10:41:22;;;;;;;;;;;;;;;15.95;49.22;97680.22;4478509;32;32843;-81
2024/01/18 10:43:49;;;;;;;;;;;;;;;15.97;49.17;97678.47;4473852;32;34887;-80
2024/01/18 10:46:19;;;;;;;;;;;;;;;16.15;48.79;97675.66;4467743;32;34166;-81
2024/01/18 10:48:47;;;;;;;;;;;;;;;16.42;48.10;97669.22;4478532;32;33615;-80
2024/01/18 10:51:14;;;;;;;;;;;;;;;16.36;48.24;97665.81;4470799;32;33946;-81
2024/01/18 10:53:42;;;;;;;;;;;;;;;16.07;48.92;97661.81;4478782;32;34815;-81
2024/01/18 10:56:12;;;;;;;;;;;;;;;16.10;48.83;97659.16;4465820;32;33525;-82
2024/01/18 10:58:39;;;;;;;;;;;;;;;16.18;48.66;97657.31;4476269;32;33752;-81
2024/01/18 11:01:08;;;;;;;;;;;;;;;16.18;48.91;97661.69;4449189;32;33247;-81
2024/01/18 11:03:35;;;;;;;;;;;;;;;16.23;48.86;97660.75;4448516;32;32418;-81
2024/01/18 11:06:08;;;;;;;;;;;;;;;16.18;49.14;97659.94;4482545;32;35588;-82
2024/01/18 11:08:36;;;;;;;;;;;;;;;16.21;49.22;97646.00;4456505;32;34046;-81
2024/01/18 11:11:04;;;;;;;;;;;;;;;16.27;49.22;97657.22;4469574;32;34140;-81
2024/01/18 11:13:31;;;;;;;;;;;;;;;16.37;49.16;97654.50;4463515;32;34711;-81
2024/01/18 11:15:58;;;;;;;;;;;;;;;16.27;49.54;97646.78;4474948;32;34277;-81
2024/01/18 11:18:26;;;;;;;;;;;;;;;16.44;49.41;97648.31;4472405;32;34784;-80
2024/01/18 11:20:59;;;;;;;;;;;;;;;16.59;49.33;97653.34;4477275;32;33613;-80
2024/01/18 11:23:27;;;;;;;;;;;;;;;16.62;49.31;97649.81;4472289;32;34088;-82
2024/01/18 11:25:55;;;;;;;;;;;;;;;16.95;48.65;97645.84;4469690;32;33180;-80
2024/01/18 11:28:23;;;;;;;;;;;;;;;16.55;50.04;97650.75;4468635;32;34200;-81
2024/01/18 11:30:50;;;;;;;;;;;;;;;16.81;49.39;97647.78;4472454;32;33725;-80
2024/01/18 11:33:18;;;;;;;;;;;;;;;16.99;49.21;97646.69;4464299;32;34264;-79
2024/01/18 11:35:45;;;;;;;;;;;;;;;17.03;48.90;97654.44;4478766;32;33891;-80
2024/01/18 11:38:27;;;;;;;;;;;;;;;16.95;49.02;97648.47;4481608;32;34996;-80
2024/01/18 11:41:08;;;;;;;;;;;;;;;16.94;49.31;97628.47;4474309;32;33571;-80
2024/01/18 11:43:52;;;;;;;;;;;;;;;16.91;49.75;97633.72;4456014;32;33848;-79
2024/01/18 11:46:33;;;;;;;;;;;;;;;16.88;49.61;97629.41;4476054;32;34170;-81
2024/01/18 11:49:01;;;;;;;;;;;;;;;17.31;48.65;97638.31;4457794;32;32506;-81
2024/01/18 11:51:29;;;;;;;;;;;;;;;17.77;47.64;97620.91;4473000;32;33951;-81
2024/01/18 11:54:02;;;;;;;;;;;;;;;17.15;48.78;97628.97;4480537;32;33759;-83
2024/01/18 11:56:30;;;;;;;;;;;;;;;17.31;48.43;97627.84;4477168;32;34404;-80
2024/01/18 11:58:58;;;;;;;;;;;;;;;17.65;48.06;97624.63;4455255;32;34133;-81
2024/01/18 12:01:29;;;;;;;;;;;;;;;16.71;49.92;97616.56;4477378;32;34096;-81
2024/01/18 12:03:56;;;;;;;;;;;;;;;16.66;50.36;97613.13;4484964;32;34788;-82
2024/01/18 12:06:26;;;;;;;;;;;;;;;16.54;50.67;97613.31;4475560;32;34828;-82
2024/01/18 12:08:54;;;;;;;;;;;;;;;16.56;50.62;97622.00;4472472;32;33884;-83
2024/01/18 12:11:22;;;;;;;;;;;;;;;16.85;50.25;97618.13;4475895;32;33515;-82
2024/01/18 12:13:49;;;;;;;;;;;;;;;16.93;50.05;97620.63;4479629;32;33930;-82
2024/01/18 12:16:18;;;;;;;;;;;;;;;16.64;50.72;97616.66;4481144;32;33949;-81
2024/01/18 12:18:46;;;;;;;;;;;;;;;16.85;50.25;97620.75;4477243;32;33900;-84
2024/01/18 12:21:18;;;;;;;;;;;;;;;16.87;50.25;97611.12;4479682;32;34026;-83
2024/01/18 12:23:47;;;;;;;;;;;;;;;16.81;50.29;97616.41;4481546;32;34236;-83
2024/01/18 12:26:14;;;;;;;;;;;;;;;16.78;50.44;97612.09;4470840;32;34137;-82
2024/01/18 12:28:41;;;;;;;;;;;;;;;16.88;50.24;97618.94;4466201;32;34339;-82
2024/01/18 12:31:09;;;;;;;;;;;;;;;16.90;49.96;97616.28;4455249;32;33817;-80
2024/01/18 12:33:36;;;;;;;;;;;;;;;16.98;49.57;97619.66;4463818;32;33271;-84
2024/01/18 12:36:04;;;;;;;;;;;;;;;16.91;49.71;97623.25;4445030;32;33375;-81
2024/01/18 12:38:36;;;;;;;;;;;;;;;16.88;49.63;97618.94;4455614;32;34204;-81
2024/01/18 12:41:04;;;;;;;;;;;;;;;16.93;49.42;97618.88;4477763;32;33229;-82
2024/01/18 12:43:31;;;;;;;;;;;;;;;16.90;49.45;97624.13;4477620;32;34199;-83
2024/01/18 12:45:59;;;;;;;;;;;;;;;16.91;49.34;97631.09;4472195;32;33997;-83
2024/01/18 12:48:27;;;;;;;;;;;;;;;17.00;49.15;97630.97;4474303;32;34099;-82
2024/01/18 12:50:55;;;;;;;;;;;;;;;16.96;49.12;97624.06;4464469;32;33897;-82